CCA593 ZBAA-ZLXN
Flight info
| Callsign | CCA593 |
|---|---|
| Flight time | 1h 50m |
| Altitude | 34100 |
| Route | K0878S1220 BOTPU7X BOTPU W47 IDSOT W48 MAKIP DCT MULOB W220 NIRUV B215 VENIV W198 PANRA DCT UPVOP UPV19A |
| Aircraft | B772/H-SDE2E3FGHIJ5LORVWXY/LB1D1 |
Departure
| Time | 2026-04-19 06:50 |
|---|---|
| Airport | Beijing Capital International Airport (ZBAA) |
Arrival
| Time | 2026-04-19 08:40 |
|---|---|
| Airport | Xining Caojiabao International Airport (ZLXN) |
| Time | Latitude | Longitude | Altitude | Speed | Heading |
|---|---|---|---|---|---|
| 2026-04-19 06:45 | 40.07686 | 116.59270 | 130 ft | 1 kts | 171° |
| 2026-04-19 06:45 | 40.07663 | 116.59275 | 130 ft | 5 kts | 169° |
| 2026-04-19 06:46 | 40.07611 | 116.59283 | 130 ft | 9 kts | 177° |
| 2026-04-19 06:46 | 40.07526 | 116.59291 | 130 ft | 14 kts | 174° |
| 2026-04-19 06:46 | 40.07415 | 116.59318 | 130 ft | 18 kts | 157° |
| 2026-04-19 06:46 | 40.07289 | 116.59394 | 130 ft | 21 kts | 169° |
| 2026-04-19 06:47 | 40.07128 | 116.59425 | 130 ft | 24 kts | 173° |
| 2026-04-19 06:47 | 40.06948 | 116.59467 | 130 ft | 27 kts | 167° |
| 2026-04-19 06:47 | 40.06747 | 116.59506 | 130 ft | 30 kts | 176° |
| 2026-04-19 06:47 | 40.06540 | 116.59516 | 130 ft | 29 kts | 177° |
| 2026-04-19 06:48 | 40.06390 | 116.59602 | 130 ft | 22 kts | 123° |
| 2026-04-19 06:48 | 40.06247 | 116.59667 | 130 ft | 22 kts | 172° |
| 2026-04-19 06:48 | 40.06089 | 116.59692 | 130 ft | 23 kts | 174° |
| 2026-04-19 06:48 | 40.05920 | 116.59717 | 130 ft | 25 kts | 173° |
| 2026-04-19 06:49 | 40.05734 | 116.59746 | 130 ft | 28 kts | 173° |
| 2026-04-19 06:49 | 40.05642 | 116.59900 | 130 ft | 25 kts | 84° |
| 2026-04-19 06:49 | 40.05704 | 116.59983 | 130 ft | 0 kts | 356° |
| 2026-04-19 06:49 | 40.05753 | 116.59978 | 130 ft | 31 kts | 356° |
| 2026-04-19 06:50 | 40.06228 | 116.59908 | 130 ft | 103 kts | 353° |
| 2026-04-19 06:50 | 40.07151 | 116.59769 | 136 ft | 160 kts | 353° |
| 2026-04-19 06:50 | 40.08251 | 116.59578 | 851 ft | 144 kts | 350° |
| 2026-04-19 06:50 | 40.09228 | 116.59390 | 1182 ft | 153 kts | 354° |
| 2026-04-19 06:51 | 40.10347 | 116.59254 | 1226 ft | 168 kts | 354° |
| 2026-04-19 06:51 | 40.11565 | 116.59072 | 1302 ft | 184 kts | 353° |
| 2026-04-19 06:51 | 40.12885 | 116.58863 | 1399 ft | 199 kts | 353° |
| 2026-04-19 06:51 | 40.14320 | 116.58637 | 1533 ft | 215 kts | 353° |
| 2026-04-19 06:52 | 40.15872 | 116.58392 | 1688 ft | 231 kts | 353° |
| 2026-04-19 06:52 | 40.17532 | 116.58130 | 1864 ft | 247 kts | 353° |
| 2026-04-19 06:52 | 40.19265 | 116.57858 | 2179 ft | 256 kts | 353° |
| 2026-04-19 06:52 | 40.21064 | 116.57574 | 2913 ft | 259 kts | 353° |
| 2026-04-19 06:53 | 40.22848 | 116.57291 | 3657 ft | 262 kts | 353° |
| 2026-04-19 06:53 | 40.24652 | 116.56803 | 4173 ft | 269 kts | 336° |
| 2026-04-19 06:53 | 40.26207 | 116.55507 | 4975 ft | 267 kts | 321° |
| 2026-04-19 06:53 | 40.27628 | 116.53939 | 5670 ft | 270 kts | 319° |
| 2026-04-19 06:54 | 40.29039 | 116.52309 | 6350 ft | 273 kts | 319° |
| 2026-04-19 06:54 | 40.30447 | 116.50612 | 7023 ft | 275 kts | 311° |
| 2026-04-19 06:54 | 40.31376 | 116.48450 | 7643 ft | 278 kts | 286° |
| 2026-04-19 06:54 | 40.31631 | 116.45940 | 8289 ft | 281 kts | 272° |
| 2026-04-19 06:55 | 40.31662 | 116.43388 | 8943 ft | 283 kts | 270° |
| 2026-04-19 06:55 | 40.31660 | 116.40781 | 9592 ft | 286 kts | 270° |
| 2026-04-19 06:55 | 40.31657 | 116.38206 | 10211 ft | 289 kts | 270° |
| 2026-04-19 06:55 | 40.31656 | 116.35482 | 10546 ft | 304 kts | 270° |
| 2026-04-19 06:56 | 40.31656 | 116.32649 | 10820 ft | 320 kts | 270° |
| 2026-04-19 06:56 | 40.31655 | 116.29649 | 11107 ft | 336 kts | 270° |
| 2026-04-19 06:56 | 40.31653 | 116.26556 | 11487 ft | 347 kts | 270° |
| 2026-04-19 06:56 | 40.31650 | 116.23363 | 12116 ft | 352 kts | 270° |
| 2026-04-19 06:57 | 40.31647 | 116.20207 | 12778 ft | 355 kts | 270° |
| 2026-04-19 06:57 | 40.31642 | 116.17111 | 13425 ft | 359 kts | 270° |
| 2026-04-19 06:57 | 40.31636 | 116.13861 | 14100 ft | 362 kts | 270° |
| 2026-04-19 06:57 | 40.31629 | 116.10552 | 14791 ft | 366 kts | 270° |
| 2026-04-19 06:58 | 40.31622 | 116.07217 | 15489 ft | 370 kts | 270° |
| 2026-04-19 06:58 | 40.31612 | 116.03847 | 16182 ft | 373 kts | 270° |
| 2026-04-19 06:58 | 40.31603 | 116.00432 | 16856 ft | 377 kts | 270° |
| 2026-04-19 06:58 | 40.31591 | 115.96978 | 17517 ft | 381 kts | 270° |
| 2026-04-19 06:59 | 40.31580 | 115.93500 | 18162 ft | 384 kts | 270° |
| 2026-04-19 06:59 | 40.31567 | 115.89992 | 18794 ft | 388 kts | 270° |
| 2026-04-19 06:59 | 40.31554 | 115.86466 | 19411 ft | 392 kts | 270° |
| 2026-04-19 06:59 | 40.31539 | 115.82877 | 20026 ft | 395 kts | 270° |
| 2026-04-19 07:00 | 40.31358 | 115.79318 | 20601 ft | 399 kts | 261° |
| 2026-04-19 07:00 | 40.30701 | 115.75771 | 21193 ft | 402 kts | 251° |
| 2026-04-19 07:00 | 40.29578 | 115.72422 | 21768 ft | 405 kts | 241° |
| 2026-04-19 07:00 | 40.28011 | 115.69358 | 22314 ft | 408 kts | 231° |
| 2026-04-19 07:01 | 40.26025 | 115.66671 | 22848 ft | 412 kts | 220° |
| 2026-04-19 07:01 | 40.23718 | 115.64505 | 23366 ft | 415 kts | 210° |
| 2026-04-19 07:01 | 40.21161 | 115.62701 | 23896 ft | 418 kts | 207° |
| 2026-04-19 07:01 | 40.18543 | 115.60932 | 24424 ft | 421 kts | 207° |
| 2026-04-19 07:02 | 40.15933 | 115.59175 | 24930 ft | 425 kts | 207° |
| 2026-04-19 07:02 | 40.13311 | 115.57411 | 25423 ft | 428 kts | 207° |
| 2026-04-19 07:02 | 40.10676 | 115.55642 | 25903 ft | 431 kts | 207° |
| 2026-04-19 07:02 | 40.08016 | 115.53727 | 26373 ft | 434 kts | 213° |
| 2026-04-19 07:03 | 40.05609 | 115.51346 | 26813 ft | 437 kts | 222° |
| 2026-04-19 07:03 | 40.03522 | 115.48503 | 27239 ft | 440 kts | 231° |
| 2026-04-19 07:03 | 40.01769 | 115.45190 | 27667 ft | 444 kts | 240° |
| 2026-04-19 07:03 | 40.00449 | 115.41557 | 28082 ft | 446 kts | 250° |
| 2026-04-19 07:04 | 39.99590 | 115.37666 | 28486 ft | 449 kts | 259° |
| 2026-04-19 07:04 | 39.99224 | 115.33605 | 28881 ft | 452 kts | 268° |
| 2026-04-19 07:04 | 39.99328 | 115.29552 | 29288 ft | 454 kts | 274° |
| 2026-04-19 07:04 | 39.99575 | 115.25369 | 29840 ft | 453 kts | 274° |
| 2026-04-19 07:05 | 39.99815 | 115.21265 | 30439 ft | 450 kts | 274° |
| 2026-04-19 07:05 | 40.00055 | 115.16984 | 31015 ft | 448 kts | 274° |
| 2026-04-19 07:05 | 40.00282 | 115.12783 | 31534 ft | 447 kts | 274° |
| 2026-04-19 07:05 | 40.00490 | 115.08835 | 31998 ft | 447 kts | 274° |
| 2026-04-19 07:06 | 40.00698 | 115.04791 | 32471 ft | 446 kts | 274° |
| 2026-04-19 07:06 | 40.00903 | 115.00749 | 32930 ft | 445 kts | 274° |
| 2026-04-19 07:06 | 40.01106 | 114.96678 | 33380 ft | 444 kts | 274° |
| 2026-04-19 07:06 | 40.01303 | 114.92690 | 33815 ft | 443 kts | 274° |
| 2026-04-19 07:07 | 40.01499 | 114.88662 | 34086 ft | 445 kts | 274° |
| 2026-04-19 07:07 | 40.01693 | 114.84636 | 34102 ft | 445 kts | 274° |
| 2026-04-19 07:07 | 40.02074 | 114.76626 | 34105 ft | 442 kts | 274° |
| 2026-04-19 07:08 | 40.02451 | 114.68562 | 34105 ft | 442 kts | 274° |
| 2026-04-19 07:08 | 40.02823 | 114.60485 | 34104 ft | 442 kts | 274° |
| 2026-04-19 07:09 | 40.03186 | 114.52465 | 34104 ft | 442 kts | 274° |
| 2026-04-19 07:09 | 40.03543 | 114.44446 | 34104 ft | 442 kts | 274° |
| 2026-04-19 07:10 | 40.03894 | 114.36440 | 34104 ft | 442 kts | 274° |
| 2026-04-19 07:10 | 40.04236 | 114.28542 | 34104 ft | 442 kts | 273° |
| 2026-04-19 07:11 | 40.04575 | 114.20548 | 34104 ft | 442 kts | 273° |
| 2026-04-19 07:11 | 40.04915 | 114.12680 | 34102 ft | 442 kts | 275° |
| 2026-04-19 07:12 | 40.05512 | 114.04734 | 34105 ft | 442 kts | 276° |
| 2026-04-19 07:12 | 40.06115 | 113.96773 | 34105 ft | 442 kts | 275° |
| 2026-04-19 07:13 | 40.06708 | 113.88757 | 34105 ft | 442 kts | 275° |
| 2026-04-19 07:13 | 40.07289 | 113.80765 | 34105 ft | 442 kts | 275° |
| 2026-04-19 07:14 | 40.07858 | 113.72819 | 34105 ft | 442 kts | 275° |
| 2026-04-19 07:14 | 40.08427 | 113.64787 | 34104 ft | 442 kts | 275° |
| 2026-04-19 07:15 | 40.08985 | 113.56827 | 34104 ft | 442 kts | 275° |
| 2026-04-19 07:16 | 40.09813 | 113.44842 | 34104 ft | 442 kts | 275° |
| 2026-04-19 07:16 | 40.10361 | 113.36808 | 34104 ft | 442 kts | 275° |
| 2026-04-19 07:17 | 40.10904 | 113.28764 | 34104 ft | 441 kts | 275° |
| 2026-04-19 07:17 | 40.11444 | 113.20763 | 34105 ft | 441 kts | 275° |
| 2026-04-19 07:18 | 40.11901 | 113.13849 | 34104 ft | 441 kts | 275° |
| 2026-04-19 07:19 | 40.12888 | 112.98662 | 34104 ft | 441 kts | 275° |
| 2026-04-19 07:19 | 40.13401 | 112.90663 | 34101 ft | 443 kts | 275° |
| 2026-04-19 07:20 | 40.13917 | 112.82528 | 34106 ft | 458 kts | 275° |
| 2026-04-19 07:20 | 40.14447 | 112.74080 | 34105 ft | 473 kts | 275° |
| 2026-04-19 07:21 | 40.14986 | 112.65383 | 34105 ft | 488 kts | 275° |
| 2026-04-19 07:21 | 40.15533 | 112.56456 | 34104 ft | 499 kts | 275° |
| 2026-04-19 07:22 | 40.15764 | 112.47395 | 34105 ft | 497 kts | 265° |
| 2026-04-19 07:22 | 40.14189 | 112.38636 | 34109 ft | 497 kts | 251° |
| 2026-04-19 07:23 | 40.11880 | 112.30147 | 34105 ft | 497 kts | 250° |
| 2026-04-19 07:23 | 40.09503 | 112.21549 | 34104 ft | 497 kts | 250° |
| 2026-04-19 07:24 | 40.07241 | 112.13428 | 34104 ft | 497 kts | 250° |
| 2026-04-19 07:24 | 40.04857 | 112.04907 | 34104 ft | 497 kts | 250° |
| 2026-04-19 07:25 | 40.02458 | 111.96375 | 34104 ft | 497 kts | 250° |
| 2026-04-19 07:25 | 39.99900 | 111.88007 | 34105 ft | 497 kts | 242° |
| 2026-04-19 07:26 | 39.95840 | 111.80759 | 34104 ft | 497 kts | 225° |
| 2026-04-19 07:26 | 39.90579 | 111.74802 | 34105 ft | 497 kts | 220° |
| 2026-04-19 07:27 | 39.85292 | 111.69067 | 34104 ft | 496 kts | 220° |
| 2026-04-19 07:27 | 39.80022 | 111.63367 | 34105 ft | 491 kts | 220° |
| 2026-04-19 07:28 | 39.75081 | 111.58035 | 34104 ft | 492 kts | 220° |
| 2026-04-19 07:28 | 39.69744 | 111.52290 | 34104 ft | 492 kts | 220° |
| 2026-04-19 07:29 | 39.64428 | 111.46578 | 34105 ft | 492 kts | 220° |
| 2026-04-19 07:29 | 39.59464 | 111.41258 | 34105 ft | 492 kts | 220° |
| 2026-04-19 07:30 | 39.54181 | 111.35605 | 34105 ft | 492 kts | 220° |
| 2026-04-19 07:30 | 39.48925 | 111.29993 | 34105 ft | 492 kts | 219° |
| 2026-04-19 07:31 | 39.43636 | 111.24358 | 34105 ft | 492 kts | 219° |
| 2026-04-19 07:31 | 39.38516 | 111.18913 | 34105 ft | 492 kts | 219° |
| 2026-04-19 07:32 | 39.33169 | 111.13238 | 34105 ft | 492 kts | 219° |
| 2026-04-19 07:32 | 39.27943 | 111.07704 | 34105 ft | 492 kts | 219° |
| 2026-04-19 07:33 | 39.22747 | 111.02019 | 34101 ft | 491 kts | 225° |
| 2026-04-19 07:33 | 39.18729 | 110.94869 | 34101 ft | 492 kts | 243° |
| 2026-04-19 07:34 | 39.16619 | 110.86576 | 34101 ft | 492 kts | 261° |
| 2026-04-19 07:34 | 39.16473 | 110.77788 | 34107 ft | 492 kts | 274° |
| 2026-04-19 07:35 | 39.16935 | 110.68980 | 34105 ft | 492 kts | 274° |
| 2026-04-19 07:35 | 39.17371 | 110.60214 | 34105 ft | 492 kts | 274° |
| 2026-04-19 07:36 | 39.17793 | 110.51370 | 34104 ft | 492 kts | 274° |
| 2026-04-19 07:36 | 39.18197 | 110.42584 | 34104 ft | 492 kts | 274° |
| 2026-04-19 07:37 | 39.18590 | 110.33821 | 34104 ft | 492 kts | 273° |
| 2026-04-19 07:37 | 39.18979 | 110.24960 | 34105 ft | 492 kts | 273° |
| 2026-04-19 07:38 | 39.19358 | 110.16159 | 34105 ft | 492 kts | 273° |
| 2026-04-19 07:38 | 39.19768 | 110.07536 | 34105 ft | 492 kts | 274° |
| 2026-04-19 07:39 | 39.20200 | 109.98624 | 34105 ft | 492 kts | 274° |
| 2026-04-19 07:39 | 39.20617 | 109.89829 | 34105 ft | 492 kts | 273° |
| 2026-04-19 07:40 | 39.21025 | 109.81082 | 34105 ft | 492 kts | 273° |
| 2026-04-19 07:40 | 39.21428 | 109.72271 | 34105 ft | 492 kts | 273° |
| 2026-04-19 07:41 | 39.21823 | 109.63461 | 34104 ft | 492 kts | 273° |
| 2026-04-19 07:41 | 39.22210 | 109.54707 | 34104 ft | 492 kts | 273° |
| 2026-04-19 07:42 | 39.22583 | 109.45887 | 34104 ft | 492 kts | 273° |
| 2026-04-19 07:42 | 39.22919 | 109.37100 | 34104 ft | 492 kts | 273° |
| 2026-04-19 07:43 | 39.23248 | 109.28316 | 34104 ft | 492 kts | 272° |
| 2026-04-19 07:43 | 39.23571 | 109.19571 | 34104 ft | 492 kts | 272° |
| 2026-04-19 07:44 | 39.23876 | 109.11147 | 34104 ft | 492 kts | 272° |
| 2026-04-19 07:44 | 39.24185 | 109.02446 | 34104 ft | 492 kts | 272° |
| 2026-04-19 07:45 | 39.24490 | 108.93665 | 34104 ft | 492 kts | 272° |
| 2026-04-19 07:45 | 39.24791 | 108.84822 | 34104 ft | 492 kts | 272° |
| 2026-04-19 07:46 | 39.25085 | 108.76028 | 34103 ft | 492 kts | 272° |
| 2026-04-19 07:46 | 39.25374 | 108.67225 | 34104 ft | 492 kts | 272° |
| 2026-04-19 07:47 | 39.25655 | 108.58479 | 34104 ft | 492 kts | 272° |
| 2026-04-19 07:47 | 39.25931 | 108.49671 | 34104 ft | 492 kts | 272° |
| 2026-04-19 07:48 | 39.26201 | 108.40846 | 34104 ft | 492 kts | 272° |
| 2026-04-19 07:48 | 39.26463 | 108.32042 | 34104 ft | 492 kts | 272° |
| 2026-04-19 07:49 | 39.26719 | 108.23257 | 34104 ft | 492 kts | 272° |
| 2026-04-19 07:49 | 39.26863 | 108.18199 | 34104 ft | 492 kts | 272° |
| 2026-04-19 07:50 | 39.27442 | 107.97095 | 34104 ft | 492 kts | 272° |
| 2026-04-19 07:51 | 39.27673 | 107.88272 | 34104 ft | 492 kts | 272° |
| 2026-04-19 07:51 | 39.27898 | 107.79462 | 34104 ft | 492 kts | 272° |
| 2026-04-19 07:52 | 39.28002 | 107.70665 | 34102 ft | 491 kts | 266° |
| 2026-04-19 07:52 | 39.26476 | 107.62077 | 34103 ft | 492 kts | 248° |
| 2026-04-19 07:53 | 39.23074 | 107.54437 | 34107 ft | 492 kts | 236° |
| 2026-04-19 07:53 | 39.19154 | 107.47192 | 34104 ft | 492 kts | 235° |
| 2026-04-19 07:54 | 39.15235 | 107.39989 | 34104 ft | 492 kts | 235° |
| 2026-04-19 07:54 | 39.11316 | 107.32786 | 34104 ft | 492 kts | 234° |
| 2026-04-19 07:55 | 39.07377 | 107.25593 | 34105 ft | 492 kts | 234° |
| 2026-04-19 07:55 | 39.03407 | 107.18372 | 34105 ft | 492 kts | 234° |
| 2026-04-19 07:56 | 38.99676 | 107.11600 | 34105 ft | 492 kts | 234° |
| 2026-04-19 07:56 | 38.95774 | 107.04533 | 34105 ft | 492 kts | 234° |
| 2026-04-19 07:57 | 38.91816 | 106.97382 | 34105 ft | 492 kts | 234° |
| 2026-04-19 07:57 | 38.87846 | 106.90225 | 34105 ft | 492 kts | 234° |
| 2026-04-19 07:58 | 38.83882 | 106.83094 | 34105 ft | 492 kts | 234° |
| 2026-04-19 07:58 | 38.79854 | 106.75864 | 34105 ft | 492 kts | 234° |
| 2026-04-19 07:59 | 38.76105 | 106.69151 | 34105 ft | 492 kts | 234° |
| 2026-04-19 07:59 | 38.72241 | 106.62244 | 34105 ft | 492 kts | 234° |
| 2026-04-19 08:01 | 38.60683 | 106.41675 | 34105 ft | 492 kts | 234° |
| 2026-04-19 08:01 | 38.56656 | 106.34539 | 34104 ft | 492 kts | 234° |
| 2026-04-19 08:02 | 38.52673 | 106.27495 | 34103 ft | 481 kts | 234° |
| 2026-04-19 08:02 | 38.50737 | 106.24078 | 34103 ft | 463 kts | 234° |
| 2026-04-19 08:02 | 38.48891 | 106.20822 | 34103 ft | 452 kts | 234° |
| 2026-04-19 08:03 | 38.45133 | 106.14204 | 34105 ft | 468 kts | 234° |
| 2026-04-19 08:03 | 38.41285 | 106.07553 | 34105 ft | 482 kts | 233° |
| 2026-04-19 08:04 | 38.37222 | 106.00764 | 34104 ft | 480 kts | 232° |
| 2026-04-19 08:04 | 38.33158 | 105.93978 | 34104 ft | 480 kts | 233° |
| 2026-04-19 08:05 | 38.29095 | 105.87202 | 34104 ft | 480 kts | 233° |
| 2026-04-19 08:05 | 38.25023 | 105.80418 | 34104 ft | 480 kts | 233° |
| 2026-04-19 08:06 | 38.20980 | 105.73697 | 34104 ft | 480 kts | 233° |
| 2026-04-19 08:06 | 38.16915 | 105.66952 | 34104 ft | 480 kts | 233° |
| 2026-04-19 08:07 | 38.12839 | 105.60201 | 34104 ft | 480 kts | 233° |
| 2026-04-19 08:07 | 38.08791 | 105.53510 | 34104 ft | 480 kts | 233° |
| 2026-04-19 08:08 | 38.04695 | 105.46755 | 34106 ft | 483 kts | 233° |
| 2026-04-19 08:08 | 38.00541 | 105.39916 | 34107 ft | 497 kts | 233° |
| 2026-04-19 08:09 | 37.96316 | 105.32975 | 34104 ft | 497 kts | 232° |
| 2026-04-19 08:09 | 37.92123 | 105.26100 | 34104 ft | 496 kts | 232° |
| 2026-04-19 08:10 | 37.87982 | 105.19323 | 34104 ft | 496 kts | 232° |
| 2026-04-19 08:10 | 37.83769 | 105.12442 | 34104 ft | 496 kts | 232° |
| 2026-04-19 08:11 | 37.79519 | 105.05517 | 34104 ft | 496 kts | 232° |
| 2026-04-19 08:11 | 37.75462 | 104.98920 | 34104 ft | 496 kts | 232° |
| 2026-04-19 08:12 | 37.71224 | 104.92042 | 34103 ft | 496 kts | 232° |
| 2026-04-19 08:12 | 37.69095 | 104.88593 | 33888 ft | 495 kts | 232° |
| 2026-04-19 08:12 | 37.67033 | 104.85255 | 33602 ft | 486 kts | 232° |
| 2026-04-19 08:12 | 37.64972 | 104.81922 | 33306 ft | 478 kts | 232° |
| 2026-04-19 08:13 | 37.62959 | 104.78671 | 33013 ft | 472 kts | 232° |
| 2026-04-19 08:13 | 37.61038 | 104.75570 | 32732 ft | 471 kts | 232° |
| 2026-04-19 08:13 | 37.59018 | 104.72313 | 32432 ft | 469 kts | 232° |
| 2026-04-19 08:13 | 37.57024 | 104.69102 | 32136 ft | 467 kts | 232° |
| 2026-04-19 08:14 | 37.55023 | 104.65882 | 31836 ft | 465 kts | 232° |
| 2026-04-19 08:14 | 37.51069 | 104.59528 | 31242 ft | 460 kts | 232° |
| 2026-04-19 08:14 | 37.49083 | 104.56342 | 30942 ft | 458 kts | 232° |
| 2026-04-19 08:15 | 37.47118 | 104.53191 | 30644 ft | 456 kts | 232° |
| 2026-04-19 08:15 | 37.45158 | 104.50052 | 30343 ft | 454 kts | 232° |
| 2026-04-19 08:15 | 37.43232 | 104.46899 | 30044 ft | 452 kts | 233° |
| 2026-04-19 08:15 | 37.41337 | 104.43748 | 29745 ft | 450 kts | 233° |
| 2026-04-19 08:16 | 37.39470 | 104.40647 | 29449 ft | 448 kts | 233° |
| 2026-04-19 08:16 | 37.37568 | 104.37492 | 29147 ft | 446 kts | 233° |
| 2026-04-19 08:16 | 37.35716 | 104.34425 | 28851 ft | 444 kts | 232° |
| 2026-04-19 08:16 | 37.33859 | 104.31354 | 28553 ft | 441 kts | 232° |
| 2026-04-19 08:17 | 37.32003 | 104.28290 | 28254 ft | 439 kts | 232° |
| 2026-04-19 08:17 | 37.30155 | 104.25240 | 27952 ft | 437 kts | 232° |
| 2026-04-19 08:17 | 37.28299 | 104.22182 | 27651 ft | 435 kts | 232° |
| 2026-04-19 08:17 | 37.26630 | 104.19435 | 27378 ft | 433 kts | 232° |
| 2026-04-19 08:18 | 37.24810 | 104.16441 | 27080 ft | 431 kts | 232° |
| 2026-04-19 08:18 | 37.22987 | 104.13447 | 26780 ft | 429 kts | 232° |
| 2026-04-19 08:18 | 37.21153 | 104.10435 | 26475 ft | 427 kts | 233° |
| 2026-04-19 08:18 | 37.19579 | 104.07344 | 26174 ft | 425 kts | 242° |
| 2026-04-19 08:19 | 37.18366 | 104.03965 | 25874 ft | 423 kts | 248° |
| 2026-04-19 08:19 | 37.17252 | 104.00523 | 25572 ft | 422 kts | 248° |
| 2026-04-19 08:19 | 37.16162 | 103.97142 | 25275 ft | 420 kts | 248° |
| 2026-04-19 08:19 | 37.15067 | 103.93750 | 24975 ft | 418 kts | 248° |
| 2026-04-19 08:20 | 37.13978 | 103.90381 | 24675 ft | 416 kts | 248° |
| 2026-04-19 08:20 | 37.12892 | 103.87026 | 24376 ft | 414 kts | 248° |
| 2026-04-19 08:20 | 37.11813 | 103.83697 | 24077 ft | 412 kts | 248° |
| 2026-04-19 08:20 | 37.10726 | 103.80348 | 23773 ft | 410 kts | 248° |
| 2026-04-19 08:21 | 37.09660 | 103.77068 | 23476 ft | 408 kts | 248° |
| 2026-04-19 08:21 | 37.08588 | 103.73775 | 23176 ft | 406 kts | 248° |
| 2026-04-19 08:21 | 37.07521 | 103.70501 | 22877 ft | 404 kts | 248° |
| 2026-04-19 08:21 | 37.06459 | 103.67244 | 22577 ft | 403 kts | 248° |
| 2026-04-19 08:22 | 37.05400 | 103.64000 | 22278 ft | 401 kts | 248° |
| 2026-04-19 08:22 | 37.04337 | 103.60747 | 21976 ft | 399 kts | 248° |
| 2026-04-19 08:22 | 37.03287 | 103.57539 | 21676 ft | 397 kts | 248° |
| 2026-04-19 08:22 | 37.02246 | 103.54363 | 21378 ft | 395 kts | 248° |
| 2026-04-19 08:23 | 37.01203 | 103.51183 | 21079 ft | 393 kts | 248° |
| 2026-04-19 08:23 | 37.00150 | 103.47974 | 20775 ft | 392 kts | 248° |
| 2026-04-19 08:23 | 36.99114 | 103.44822 | 20475 ft | 390 kts | 248° |
| 2026-04-19 08:23 | 36.98083 | 103.41688 | 20176 ft | 388 kts | 248° |
| 2026-04-19 08:24 | 36.97056 | 103.38571 | 19875 ft | 386 kts | 248° |
| 2026-04-19 08:24 | 36.96030 | 103.35461 | 19574 ft | 385 kts | 248° |
| 2026-04-19 08:24 | 36.95006 | 103.32359 | 19274 ft | 383 kts | 247° |
| 2026-04-19 08:24 | 36.94001 | 103.29316 | 19017 ft | 381 kts | 247° |
| 2026-04-19 08:25 | 36.93005 | 103.26279 | 18769 ft | 380 kts | 248° |
| 2026-04-19 08:25 | 36.92006 | 103.23183 | 18516 ft | 378 kts | 248° |
| 2026-04-19 08:25 | 36.91136 | 103.20489 | 18295 ft | 377 kts | 248° |
| 2026-04-19 08:25 | 36.90158 | 103.17463 | 18047 ft | 376 kts | 248° |
| 2026-04-19 08:26 | 36.89184 | 103.14457 | 17798 ft | 374 kts | 248° |
| 2026-04-19 08:26 | 36.88201 | 103.11423 | 17547 ft | 373 kts | 248° |
| 2026-04-19 08:26 | 36.87226 | 103.08421 | 17297 ft | 372 kts | 248° |
| 2026-04-19 08:26 | 36.86251 | 103.05422 | 17046 ft | 370 kts | 248° |
| 2026-04-19 08:27 | 36.85268 | 103.02402 | 16793 ft | 369 kts | 248° |
| 2026-04-19 08:27 | 36.84299 | 102.99429 | 16542 ft | 367 kts | 248° |
| 2026-04-19 08:27 | 36.82433 | 102.93951 | 16071 ft | 365 kts | 242° |
| 2026-04-19 08:28 | 36.81022 | 102.91280 | 15812 ft | 363 kts | 231° |
| 2026-04-19 08:28 | 36.79274 | 102.89021 | 15553 ft | 355 kts | 220° |
| 2026-04-19 08:28 | 36.77362 | 102.87111 | 15305 ft | 347 kts | 218° |
| 2026-04-19 08:28 | 36.75787 | 102.85578 | 15100 ft | 340 kts | 218° |
| 2026-04-19 08:29 | 36.73936 | 102.83785 | 14852 ft | 334 kts | 218° |
| 2026-04-19 08:29 | 36.72098 | 102.82010 | 14717 ft | 330 kts | 218° |
| 2026-04-19 08:29 | 36.70299 | 102.80273 | 14702 ft | 325 kts | 218° |
| 2026-04-19 08:29 | 36.68507 | 102.78548 | 14703 ft | 322 kts | 218° |
| 2026-04-19 08:30 | 36.66724 | 102.76830 | 14703 ft | 322 kts | 218° |
| 2026-04-19 08:30 | 36.64958 | 102.75132 | 14703 ft | 321 kts | 218° |
| 2026-04-19 08:30 | 36.63179 | 102.73422 | 14704 ft | 321 kts | 218° |
| 2026-04-19 08:30 | 36.61419 | 102.71729 | 14704 ft | 321 kts | 218° |
| 2026-04-19 08:31 | 36.59618 | 102.70001 | 14704 ft | 321 kts | 218° |
| 2026-04-19 08:31 | 36.57858 | 102.68310 | 14703 ft | 321 kts | 218° |
| 2026-04-19 08:31 | 36.56093 | 102.66618 | 14703 ft | 321 kts | 218° |
| 2026-04-19 08:31 | 36.54318 | 102.64916 | 14704 ft | 321 kts | 218° |
| 2026-04-19 08:32 | 36.52674 | 102.63014 | 14700 ft | 321 kts | 232° |
| 2026-04-19 08:32 | 36.51486 | 102.60653 | 14682 ft | 323 kts | 242° |
| 2026-04-19 08:32 | 36.50464 | 102.58197 | 14457 ft | 323 kts | 243° |
| 2026-04-19 08:32 | 36.49457 | 102.55712 | 14208 ft | 319 kts | 244° |
| 2026-04-19 08:33 | 36.48469 | 102.53271 | 13921 ft | 313 kts | 244° |
| 2026-04-19 08:33 | 36.47507 | 102.50899 | 13656 ft | 299 kts | 243° |
| 2026-04-19 08:33 | 36.46584 | 102.48626 | 13460 ft | 293 kts | 243° |
| 2026-04-19 08:33 | 36.45657 | 102.46386 | 13212 ft | 289 kts | 243° |
| 2026-04-19 08:34 | 36.44738 | 102.44180 | 12958 ft | 285 kts | 243° |
| 2026-04-19 08:34 | 36.43840 | 102.42000 | 12684 ft | 283 kts | 246° |
| 2026-04-19 08:34 | 36.43424 | 102.39670 | 12394 ft | 279 kts | 272° |
| 2026-04-19 08:34 | 36.43763 | 102.37304 | 12119 ft | 276 kts | 286° |
| 2026-04-19 08:35 | 36.44309 | 102.35060 | 11848 ft | 274 kts | 288° |
| 2026-04-19 08:35 | 36.44902 | 102.32799 | 11622 ft | 269 kts | 288° |
| 2026-04-19 08:35 | 36.45477 | 102.30643 | 11287 ft | 256 kts | 288° |
| 2026-04-19 08:35 | 36.46035 | 102.28604 | 10972 ft | 243 kts | 289° |
| 2026-04-19 08:36 | 36.46593 | 102.26648 | 10685 ft | 230 kts | 289° |
| 2026-04-19 08:36 | 36.47075 | 102.25006 | 10396 ft | 216 kts | 290° |
| 2026-04-19 08:36 | 36.47564 | 102.23340 | 10137 ft | 200 kts | 289° |
| 2026-04-19 08:36 | 36.48017 | 102.21764 | 9882 ft | 185 kts | 289° |
| 2026-04-19 08:37 | 36.48402 | 102.20407 | 9664 ft | 173 kts | 289° |
| 2026-04-19 08:37 | 36.48793 | 102.19024 | 9445 ft | 164 kts | 289° |
| 2026-04-19 08:37 | 36.49160 | 102.17725 | 9222 ft | 158 kts | 289° |
| 2026-04-19 08:37 | 36.49522 | 102.16440 | 9006 ft | 155 kts | 289° |
| 2026-04-19 08:38 | 36.49876 | 102.15180 | 8790 ft | 155 kts | 289° |
| 2026-04-19 08:38 | 36.50231 | 102.13917 | 8572 ft | 154 kts | 289° |
| 2026-04-19 08:38 | 36.50583 | 102.12668 | 8356 ft | 153 kts | 289° |
| 2026-04-19 08:38 | 36.50934 | 102.11416 | 8143 ft | 153 kts | 289° |
| 2026-04-19 08:39 | 36.51282 | 102.10178 | 7926 ft | 153 kts | 289° |
| 2026-04-19 08:39 | 36.51630 | 102.08935 | 7716 ft | 152 kts | 289° |
| 2026-04-19 08:39 | 36.51976 | 102.07684 | 7497 ft | 152 kts | 289° |
| 2026-04-19 08:39 | 36.52336 | 102.06441 | 7281 ft | 151 kts | 288° |
| 2026-04-19 08:40 | 36.52674 | 102.05217 | 7181 ft | 142 kts | 289° |
| 2026-04-19 08:40 | 36.52927 | 102.04330 | 7181 ft | 63 kts | 289° |
| 2026-04-19 08:40 | 36.53050 | 102.03889 | 7181 ft | 31 kts | 289° |
| 2026-04-19 08:40 | 36.53086 | 102.03629 | 7181 ft | 29 kts | 266° |
| 2026-04-19 08:41 | 36.53030 | 102.03442 | 7181 ft | 17 kts | 212° |
| 2026-04-19 08:41 | 36.52924 | 102.03391 | 7181 ft | 11 kts | 200° |
| 2026-04-19 08:41 | 36.52890 | 102.03375 | 7181 ft | 5 kts | 200° |
| 2026-04-19 08:41 | 36.52846 | 102.03360 | 7181 ft | 7 kts | 184° |
| 2026-04-19 08:42 | 36.52808 | 102.03405 | 7181 ft | 9 kts | 111° |
| 2026-04-19 08:42 | 36.52796 | 102.03446 | 7181 ft | 3 kts | 110° |
| 2026-04-19 08:42 | 36.52772 | 102.03470 | 7181 ft | 4 kts | 173° |
| 2026-04-19 08:42 | 36.52741 | 102.03464 | 7181 ft | 2 kts | 190° |
| 2026-04-19 08:43 | 36.52722 | 102.03457 | 7181 ft | 0 kts | 199° |
| 2026-04-19 08:43 | 36.52717 | 102.03455 | 7181 ft | 0 kts | 200° |